sensor_id;sensor_type;location;lat;lon;timestamp;P1;durP1;ratioP1;P2;durP2;ratioP2
19800;SDS011;10060;48.274;12.214;2023-07-24T00:02:51;11.25;;;6.43;;
19800;SDS011;10060;48.274;12.214;2023-07-24T00:05:57;14.15;;;7.78;;
19800;SDS011;10060;48.274;12.214;2023-07-24T00:08:59;14.15;;;7.15;;
19800;SDS011;10060;48.274;12.214;2023-07-24T00:12:01;11.90;;;7.07;;
19800;SDS011;10060;48.274;12.214;2023-07-24T00:15:06;11.32;;;6.55;;
19800;SDS011;10060;48.274;12.214;2023-07-24T00:18:08;13.45;;;7.10;;
19800;SDS011;10060;48.274;12.214;2023-07-24T00:21:10;14.63;;;7.70;;
19800;SDS011;10060;48.274;12.214;2023-07-24T00:24:13;13.50;;;7.40;;
19800;SDS011;10060;48.274;12.214;2023-07-24T00:27:15;11.13;;;6.90;;
19800;SDS011;10060;48.274;12.214;2023-07-24T00:30:18;12.15;;;6.63;;
19800;SDS011;10060;48.274;12.214;2023-07-24T00:33:21;10.30;;;6.55;;
19800;SDS011;10060;48.274;12.214;2023-07-24T00:36:23;12.65;;;6.93;;
19800;SDS011;10060;48.274;12.214;2023-07-24T00:39:25;13.32;;;6.90;;
19800;SDS011;10060;48.274;12.214;2023-07-24T00:42:28;13.82;;;7.32;;
19800;SDS011;10060;48.274;12.214;2023-07-24T00:45:31;11.82;;;6.80;;
19800;SDS011;10060;48.274;12.214;2023-07-24T00:48:34;14.77;;;7.68;;
19800;SDS011;10060;48.274;12.214;2023-07-24T00:51:36;23.10;;;8.43;;
19800;SDS011;10060;48.274;12.214;2023-07-24T00:54:38;14.75;;;7.28;;
19800;SDS011;10060;48.274;12.214;2023-07-24T00:57:40;14.60;;;7.80;;
19800;SDS011;10060;48.274;12.214;2023-07-24T01:00:43;14.95;;;7.97;;
19800;SDS011;10060;48.274;12.214;2023-07-24T01:03:45;17.20;;;7.90;;
19800;SDS011;10060;48.274;12.214;2023-07-24T01:06:48;14.07;;;7.68;;
19800;SDS011;10060;48.274;12.214;2023-07-24T01:09:50;16.17;;;7.95;;
19800;SDS011;10060;48.274;12.214;2023-07-24T01:12:54;13.20;;;7.63;;
19800;SDS011;10060;48.274;12.214;2023-07-24T01:16:00;14.45;;;7.75;;
19800;SDS011;10060;48.274;12.214;2023-07-24T01:19:05;16.13;;;7.70;;
19800;SDS011;10060;48.274;12.214;2023-07-24T01:22:17;13.90;;;7.50;;
19800;SDS011;10060;48.274;12.214;2023-07-24T01:25:23;17.52;;;9.25;;
19800;SDS011;10060;48.274;12.214;2023-07-24T01:28:30;14.15;;;8.30;;
19800;SDS011;10060;48.274;12.214;2023-07-24T01:31:32;16.83;;;7.70;;
19800;SDS011;10060;48.274;12.214;2023-07-24T01:34:34;15.48;;;8.38;;
19800;SDS011;10060;48.274;12.214;2023-07-24T01:37:36;15.32;;;8.45;;
19800;SDS011;10060;48.274;12.214;2023-07-24T01:40:40;17.52;;;9.18;;
19800;SDS011;10060;48.274;12.214;2023-07-24T01:43:44;20.85;;;9.00;;
19800;SDS011;10060;48.274;12.214;2023-07-24T01:46:46;15.23;;;8.23;;
19800;SDS011;10060;48.274;12.214;2023-07-24T01:49:48;17.35;;;8.95;;
19800;SDS011;10060;48.274;12.214;2023-07-24T01:52:50;14.77;;;8.52;;
19800;SDS011;10060;48.274;12.214;2023-07-24T01:55:52;15.90;;;8.82;;
19800;SDS011;10060;48.274;12.214;2023-07-24T01:58:55;17.10;;;7.72;;
19800;SDS011;10060;48.274;12.214;2023-07-24T02:01:58;14.98;;;6.85;;
19800;SDS011;10060;48.274;12.214;2023-07-24T02:05:00;11.27;;;7.13;;
19800;SDS011;10060;48.274;12.214;2023-07-24T02:08:02;19.52;;;8.48;;
19800;SDS011;10060;48.274;12.214;2023-07-24T02:11:04;17.00;;;9.23;;
19800;SDS011;10060;48.274;12.214;2023-07-24T02:14:07;15.98;;;8.35;;
19800;SDS011;10060;48.274;12.214;2023-07-24T02:17:09;18.20;;;8.60;;
19800;SDS011;10060;48.274;12.214;2023-07-24T02:20:11;15.65;;;8.20;;
19800;SDS011;10060;48.274;12.214;2023-07-24T02:23:13;21.25;;;8.70;;
19800;SDS011;10060;48.274;12.214;2023-07-24T02:26:15;15.98;;;8.85;;
19800;SDS011;10060;48.274;12.214;2023-07-24T02:29:19;17.67;;;8.35;;
19800;SDS011;10060;48.274;12.214;2023-07-24T02:32:22;15.13;;;8.32;;
19800;SDS011;10060;48.274;12.214;2023-07-24T02:35:24;16.92;;;7.82;;
19800;SDS011;10060;48.274;12.214;2023-07-24T02:38:26;14.13;;;7.93;;
19800;SDS011;10060;48.274;12.214;2023-07-24T02:41:28;16.40;;;8.52;;
19800;SDS011;10060;48.274;12.214;2023-07-24T02:44:33;16.48;;;8.73;;
19800;SDS011;10060;48.274;12.214;2023-07-24T02:47:35;15.15;;;7.97;;
19800;SDS011;10060;48.274;12.214;2023-07-24T02:50:37;13.55;;;7.57;;
19800;SDS011;10060;48.274;12.214;2023-07-24T02:53:39;15.60;;;8.75;;
19800;SDS011;10060;48.274;12.214;2023-07-24T02:56:41;12.95;;;8.02;;
19800;SDS011;10060;48.274;12.214;2023-07-24T02:59:45;13.80;;;7.47;;
19800;SDS011;10060;48.274;12.214;2023-07-24T03:02:47;13.25;;;7.35;;
19800;SDS011;10060;48.274;12.214;2023-07-24T03:05:49;13.13;;;8.05;;
19800;SDS011;10060;48.274;12.214;2023-07-24T03:08:51;15.30;;;8.60;;
19800;SDS011;10060;48.274;12.214;2023-07-24T03:11:53;15.32;;;8.93;;
19800;SDS011;10060;48.274;12.214;2023-07-24T03:14:57;17.10;;;8.35;;
19800;SDS011;10060;48.274;12.214;2023-07-24T03:17:59;16.52;;;8.93;;
19800;SDS011;10060;48.274;12.214;2023-07-24T03:21:01;17.55;;;8.82;;
19800;SDS011;10060;48.274;12.214;2023-07-24T03:24:03;16.13;;;8.23;;
19800;SDS011;10060;48.274;12.214;2023-07-24T03:27:05;13.98;;;8.30;;
19800;SDS011;10060;48.274;12.214;2023-07-24T03:30:09;15.88;;;8.63;;
19800;SDS011;10060;48.274;12.214;2023-07-24T03:33:11;14.20;;;8.07;;
19800;SDS011;10060;48.274;12.214;2023-07-24T03:36:13;17.50;;;8.13;;
19800;SDS011;10060;48.274;12.214;2023-07-24T03:39:15;16.58;;;8.02;;
19800;SDS011;10060;48.274;12.214;2023-07-24T03:42:24;17.00;;;8.48;;
19800;SDS011;10060;48.274;12.214;2023-07-24T03:45:28;17.33;;;7.97;;
19800;SDS011;10060;48.274;12.214;2023-07-24T03:48:30;17.95;;;8.20;;
19800;SDS011;10060;48.274;12.214;2023-07-24T03:51:32;18.85;;;8.27;;
19800;SDS011;10060;48.274;12.214;2023-07-24T03:54:34;21.40;;;9.65;;
19800;SDS011;10060;48.274;12.214;2023-07-24T03:57:36;16.95;;;8.93;;
19800;SDS011;10060;48.274;12.214;2023-07-24T04:00:40;15.85;;;8.48;;
19800;SDS011;10060;48.274;12.214;2023-07-24T04:03:42;15.70;;;8.85;;
19800;SDS011;10060;48.274;12.214;2023-07-24T04:06:45;15.32;;;9.05;;
19800;SDS011;10060;48.274;12.214;2023-07-24T04:09:47;17.33;;;8.00;;
19800;SDS011;10060;48.274;12.214;2023-07-24T04:12:49;17.48;;;9.77;;
19800;SDS011;10060;48.274;12.214;2023-07-24T04:15:52;17.77;;;9.18;;
19800;SDS011;10060;48.274;12.214;2023-07-24T04:18:56;18.00;;;9.05;;
19800;SDS011;10060;48.274;12.214;2023-07-24T04:21:59;17.08;;;9.70;;
19800;SDS011;10060;48.274;12.214;2023-07-24T04:25:01;15.30;;;9.63;;
19800;SDS011;10060;48.274;12.214;2023-07-24T04:28:03;16.70;;;8.98;;
19800;SDS011;10060;48.274;12.214;2023-07-24T04:31:06;17.45;;;9.07;;
19800;SDS011;10060;48.274;12.214;2023-07-24T04:34:08;18.23;;;9.65;;
19800;SDS011;10060;48.274;12.214;2023-07-24T04:37:10;17.08;;;9.98;;
19800;SDS011;10060;48.274;12.214;2023-07-24T04:40:12;16.40;;;9.43;;
19800;SDS011;10060;48.274;12.214;2023-07-24T04:43:15;17.83;;;10.23;;
19800;SDS011;10060;48.274;12.214;2023-07-24T04:46:18;16.02;;;9.27;;
19800;SDS011;10060;48.274;12.214;2023-07-24T04:49:20;16.48;;;8.68;;
19800;SDS011;10060;48.274;12.214;2023-07-24T04:52:22;13.27;;;8.65;;
19800;SDS011;10060;48.274;12.214;2023-07-24T04:55:24;16.75;;;9.05;;
19800;SDS011;10060;48.274;12.214;2023-07-24T04:58:27;15.57;;;9.05;;
19800;SDS011;10060;48.274;12.214;2023-07-24T05:01:30;14.15;;;8.85;;
19800;SDS011;10060;48.274;12.214;2023-07-24T05:04:32;15.75;;;9.10;;
19800;SDS011;10060;48.274;12.214;2023-07-24T05:07:34;13.68;;;9.20;;
19800;SDS011;10060;48.274;12.214;2023-07-24T05:10:36;17.42;;;10.27;;
19800;SDS011;10060;48.274;12.214;2023-07-24T05:13:38;18.55;;;11.18;;
19800;SDS011;10060;48.274;12.214;2023-07-24T05:16:42;17.17;;;9.95;;
19800;SDS011;10060;48.274;12.214;2023-07-24T05:19:44;17.42;;;10.45;;
19800;SDS011;10060;48.274;12.214;2023-07-24T05:22:46;15.68;;;9.40;;
19800;SDS011;10060;48.274;12.214;2023-07-24T05:25:55;15.95;;;9.32;;
19800;SDS011;10060;48.274;12.214;2023-07-24T05:28:57;19.67;;;9.60;;
19800;SDS011;10060;48.274;12.214;2023-07-24T05:32:01;15.63;;;9.73;;
19800;SDS011;10060;48.274;12.214;2023-07-24T05:35:03;18.40;;;9.85;;
19800;SDS011;10060;48.274;12.214;2023-07-24T05:38:05;20.02;;;9.30;;
19800;SDS011;10060;48.274;12.214;2023-07-24T05:41:07;17.52;;;9.68;;
19800;SDS011;10060;48.274;12.214;2023-07-24T05:44:09;16.45;;;9.65;;
19800;SDS011;10060;48.274;12.214;2023-07-24T05:47:13;17.90;;;10.45;;
19800;SDS011;10060;48.274;12.214;2023-07-24T05:50:15;16.70;;;9.75;;
19800;SDS011;10060;48.274;12.214;2023-07-24T05:53:17;18.63;;;10.13;;
19800;SDS011;10060;48.274;12.214;2023-07-24T05:56:22;15.25;;;9.80;;
19800;SDS011;10060;48.274;12.214;2023-07-24T05:59:24;16.08;;;10.23;;
19800;SDS011;10060;48.274;12.214;2023-07-24T06:02:28;15.30;;;10.00;;
19800;SDS011;10060;48.274;12.214;2023-07-24T06:05:30;19.08;;;9.93;;
19800;SDS011;10060;48.274;12.214;2023-07-24T06:08:32;14.00;;;9.25;;
19800;SDS011;10060;48.274;12.214;2023-07-24T06:11:34;13.23;;;8.27;;
19800;SDS011;10060;48.274;12.214;2023-07-24T06:14:36;15.85;;;9.05;;
19800;SDS011;10060;48.274;12.214;2023-07-24T06:17:39;14.52;;;8.57;;
19800;SDS011;10060;48.274;12.214;2023-07-24T06:20:41;13.75;;;8.40;;
19800;SDS011;10060;48.274;12.214;2023-07-24T06:23:43;12.25;;;8.15;;
19800;SDS011;10060;48.274;12.214;2023-07-24T06:26:46;15.85;;;9.10;;
19800;SDS011;10060;48.274;12.214;2023-07-24T06:29:48;17.38;;;8.63;;
19800;SDS011;10060;48.274;12.214;2023-07-24T06:32:51;15.98;;;9.38;;
19800;SDS011;10060;48.274;12.214;2023-07-24T06:35:53;15.38;;;8.88;;
19800;SDS011;10060;48.274;12.214;2023-07-24T06:38:56;13.27;;;8.73;;
19800;SDS011;10060;48.274;12.214;2023-07-24T06:41:58;14.18;;;8.27;;
19800;SDS011;10060;48.274;12.214;2023-07-24T06:45:00;12.60;;;8.70;;
19800;SDS011;10060;48.274;12.214;2023-07-24T06:48:04;13.88;;;8.85;;
19800;SDS011;10060;48.274;12.214;2023-07-24T06:51:06;11.90;;;7.88;;
19800;SDS011;10060;48.274;12.214;2023-07-24T06:54:08;11.98;;;7.95;;
19800;SDS011;10060;48.274;12.214;2023-07-24T06:57:11;14.90;;;8.80;;
19800;SDS011;10060;48.274;12.214;2023-07-24T07:00:13;13.63;;;7.90;;
19800;SDS011;10060;48.274;12.214;2023-07-24T07:03:17;12.30;;;8.18;;
19800;SDS011;10060;48.274;12.214;2023-07-24T07:06:19;12.60;;;8.25;;
19800;SDS011;10060;48.274;12.214;2023-07-24T07:09:21;13.65;;;8.55;;
19800;SDS011;10060;48.274;12.214;2023-07-24T07:12:23;14.07;;;7.90;;
19800;SDS011;10060;48.274;12.214;2023-07-24T07:15:25;16.02;;;8.63;;
19800;SDS011;10060;48.274;12.214;2023-07-24T07:18:28;13.35;;;8.15;;
19800;SDS011;10060;48.274;12.214;2023-07-24T07:21:30;13.88;;;8.23;;
19800;SDS011;10060;48.274;12.214;2023-07-24T07:24:32;13.38;;;7.68;;
19800;SDS011;10060;48.274;12.214;2023-07-24T07:27:35;11.93;;;7.90;;
19800;SDS011;10060;48.274;12.214;2023-07-24T07:30:37;13.32;;;7.97;;
19800;SDS011;10060;48.274;12.214;2023-07-24T07:33:40;11.90;;;7.80;;
19800;SDS011;10060;48.274;12.214;2023-07-24T07:36:42;12.00;;;8.07;;
19800;SDS011;10060;48.274;12.214;2023-07-24T07:39:44;11.40;;;7.60;;
19800;SDS011;10060;48.274;12.214;2023-07-24T07:42:46;12.63;;;8.10;;
19800;SDS011;10060;48.274;12.214;2023-07-24T07:45:48;13.30;;;8.15;;
19800;SDS011;10060;48.274;12.214;2023-07-24T07:48:52;13.38;;;8.43;;
19800;SDS011;10060;48.274;12.214;2023-07-24T07:51:54;10.30;;;7.78;;
19800;SDS011;10060;48.274;12.214;2023-07-24T07:54:56;12.65;;;8.07;;
19800;SDS011;10060;48.274;12.214;2023-07-24T07:57:58;15.02;;;7.80;;
19800;SDS011;10060;48.274;12.214;2023-07-24T08:01:02;13.13;;;7.65;;
19800;SDS011;10060;48.274;12.214;2023-07-24T08:04:06;12.38;;;8.02;;
19800;SDS011;10060;48.274;12.214;2023-07-24T08:07:08;13.43;;;7.90;;
19800;SDS011;10060;48.274;12.214;2023-07-24T08:10:10;10.27;;;7.85;;
19800;SDS011;10060;48.274;12.214;2023-07-24T08:13:15;12.95;;;7.35;;
19800;SDS011;10060;48.274;12.214;2023-07-24T08:16:17;14.73;;;7.88;;
19800;SDS011;10060;48.274;12.214;2023-07-24T08:19:20;13.75;;;8.07;;
19800;SDS011;10060;48.274;12.214;2023-07-24T08:22:23;11.75;;;7.20;;
19800;SDS011;10060;48.274;12.214;2023-07-24T08:25:25;13.25;;;6.22;;
19800;SDS011;10060;48.274;12.214;2023-07-24T08:28:27;10.43;;;6.18;;
19800;SDS011;10060;48.274;12.214;2023-07-24T08:31:29;11.02;;;6.57;;
19800;SDS011;10060;48.274;12.214;2023-07-24T08:34:32;10.73;;;6.72;;
19800;SDS011;10060;48.274;12.214;2023-07-24T08:37:34;8.73;;;5.57;;
19800;SDS011;10060;48.274;12.214;2023-07-24T08:40:36;11.93;;;5.63;;
19800;SDS011;10060;48.274;12.214;2023-07-24T08:43:40;10.63;;;6.32;;
19800;SDS011;10060;48.274;12.214;2023-07-24T08:46:42;12.27;;;6.63;;
19800;SDS011;10060;48.274;12.214;2023-07-24T08:49:47;10.70;;;6.03;;
19800;SDS011;10060;48.274;12.214;2023-07-24T08:52:50;13.45;;;6.15;;
19800;SDS011;10060;48.274;12.214;2023-07-24T08:55:52;11.57;;;6.90;;
19800;SDS011;10060;48.274;12.214;2023-07-24T08:58:55;10.55;;;6.38;;
19800;SDS011;10060;48.274;12.214;2023-07-24T09:01:57;9.88;;;6.30;;
19800;SDS011;10060;48.274;12.214;2023-07-24T09:05:01;11.10;;;6.28;;
19800;SDS011;10060;48.274;12.214;2023-07-24T09:08:03;8.70;;;6.20;;
19800;SDS011;10060;48.274;12.214;2023-07-24T09:11:06;12.80;;;5.93;;
19800;SDS011;10060;48.274;12.214;2023-07-24T09:14:08;10.25;;;6.45;;
19800;SDS011;10060;48.274;12.214;2023-07-24T09:17:10;11.27;;;7.05;;
19800;SDS011;10060;48.274;12.214;2023-07-24T09:20:14;11.00;;;6.03;;
19800;SDS011;10060;48.274;12.214;2023-07-24T09:23:17;8.93;;;6.13;;
19800;SDS011;10060;48.274;12.214;2023-07-24T09:26:26;9.95;;;6.28;;
19800;SDS011;10060;48.274;12.214;2023-07-24T09:29:30;9.50;;;6.13;;
19800;SDS011;10060;48.274;12.214;2023-07-24T09:32:32;9.95;;;5.82;;
19800;SDS011;10060;48.274;12.214;2023-07-24T09:35:35;7.65;;;5.57;;
19800;SDS011;10060;48.274;12.214;2023-07-24T09:38:38;7.60;;;5.43;;
19800;SDS011;10060;48.274;12.214;2023-07-24T09:41:40;9.75;;;5.07;;
19800;SDS011;10060;48.274;12.214;2023-07-24T09:44:42;8.60;;;5.43;;
19800;SDS011;10060;48.274;12.214;2023-07-24T09:47:44;10.65;;;5.63;;
19800;SDS011;10060;48.274;12.214;2023-07-24T09:50:51;10.07;;;5.80;;
19800;SDS011;10060;48.274;12.214;2023-07-24T09:53:55;9.60;;;5.65;;
19800;SDS011;10060;48.274;12.214;2023-07-24T09:56:58;10.23;;;5.63;;
19800;SDS011;10060;48.274;12.214;2023-07-24T10:00:00;8.20;;;5.00;;
19800;SDS011;10060;48.274;12.214;2023-07-24T10:03:02;8.45;;;5.20;;
19800;SDS011;10060;48.274;12.214;2023-07-24T10:06:06;9.27;;;5.60;;
19800;SDS011;10060;48.274;12.214;2023-07-24T10:09:11;13.63;;;6.50;;
19800;SDS011;10060;48.274;12.214;2023-07-24T10:12:13;7.30;;;5.00;;
19800;SDS011;10060;48.274;12.214;2023-07-24T10:15:16;9.93;;;5.88;;
19800;SDS011;10060;48.274;12.214;2023-07-24T10:18:26;8.25;;;5.22;;
19800;SDS011;10060;48.274;12.214;2023-07-24T10:21:29;8.50;;;5.65;;
19800;SDS011;10060;48.274;12.214;2023-07-24T10:24:32;8.52;;;5.65;;
19800;SDS011;10060;48.274;12.214;2023-07-24T10:27:35;8.75;;;5.38;;
19800;SDS011;10060;48.274;12.214;2023-07-24T10:30:38;13.57;;;5.85;;
19800;SDS011;10060;48.274;12.214;2023-07-24T10:33:43;9.43;;;5.68;;
19800;SDS011;10060;48.274;12.214;2023-07-24T10:36:47;7.70;;;5.00;;
19800;SDS011;10060;48.274;12.214;2023-07-24T10:39:49;10.10;;;5.30;;
19800;SDS011;10060;48.274;12.214;2023-07-24T10:42:58;8.07;;;5.22;;
19800;SDS011;10060;48.274;12.214;2023-07-24T10:46:00;7.15;;;4.80;;
19800;SDS011;10060;48.274;12.214;2023-07-24T10:49:02;8.60;;;4.57;;
19800;SDS011;10060;48.274;12.214;2023-07-24T10:52:06;6.30;;;4.30;;
19800;SDS011;10060;48.274;12.214;2023-07-24T10:55:09;6.18;;;4.32;;
19800;SDS011;10060;48.274;12.214;2023-07-24T10:58:11;6.13;;;4.00;;
19800;SDS011;10060;48.274;12.214;2023-07-24T11:01:13;5.53;;;4.25;;
19800;SDS011;10060;48.274;12.214;2023-07-24T11:04:15;6.47;;;4.53;;
19800;SDS011;10060;48.274;12.214;2023-07-24T11:07:19;7.13;;;4.70;;
19800;SDS011;10060;48.274;12.214;2023-07-24T11:10:22;5.82;;;4.05;;
19800;SDS011;10060;48.274;12.214;2023-07-24T11:13:25;6.15;;;4.60;;
19800;SDS011;10060;48.274;12.214;2023-07-24T11:16:27;5.95;;;4.20;;
19800;SDS011;10060;48.274;12.214;2023-07-24T11:19:31;6.22;;;4.43;;
19800;SDS011;10060;48.274;12.214;2023-07-24T11:22:34;7.85;;;5.10;;
19800;SDS011;10060;48.274;12.214;2023-07-24T11:25:36;8.23;;;5.20;;
19800;SDS011;10060;48.274;12.214;2023-07-24T11:28:39;6.38;;;4.35;;
19800;SDS011;10060;48.274;12.214;2023-07-24T11:31:41;7.70;;;5.68;;
19800;SDS011;10060;48.274;12.214;2023-07-24T11:34:43;7.68;;;4.68;;
19800;SDS011;10060;48.274;12.214;2023-07-24T11:37:46;7.45;;;5.20;;
19800;SDS011;10060;48.274;12.214;2023-07-24T11:40:48;7.45;;;5.25;;
19800;SDS011;10060;48.274;12.214;2023-07-24T11:43:51;8.15;;;4.60;;
19800;SDS011;10060;48.274;12.214;2023-07-24T11:46:59;6.93;;;4.60;;
19800;SDS011;10060;48.274;12.214;2023-07-24T11:50:02;7.82;;;5.45;;
19800;SDS011;10060;48.274;12.214;2023-07-24T11:53:05;7.30;;;4.78;;
19800;SDS011;10060;48.274;12.214;2023-07-24T11:56:12;6.63;;;4.80;;
19800;SDS011;10060;48.274;12.214;2023-07-24T11:59:15;6.93;;;5.00;;
19800;SDS011;10060;48.274;12.214;2023-07-24T12:02:17;7.80;;;4.50;;
19800;SDS011;10060;48.274;12.214;2023-07-24T12:05:20;8.15;;;5.65;;
19800;SDS011;10060;48.274;12.214;2023-07-24T12:08:31;8.32;;;5.78;;
19800;SDS011;10060;48.274;12.214;2023-07-24T12:11:33;9.05;;;5.78;;
19800;SDS011;10060;48.274;12.214;2023-07-24T12:14:40;9.20;;;6.00;;
19800;SDS011;10060;48.274;12.214;2023-07-24T12:17:42;9.68;;;5.05;;
19800;SDS011;10060;48.274;12.214;2023-07-24T12:20:44;15.32;;;6.60;;
19800;SDS011;10060;48.274;12.214;2023-07-24T12:23:48;10.73;;;5.43;;
19800;SDS011;10060;48.274;12.214;2023-07-24T12:26:50;7.88;;;5.70;;
19800;SDS011;10060;48.274;12.214;2023-07-24T12:29:52;7.82;;;4.85;;
19800;SDS011;10060;48.274;12.214;2023-07-24T12:32:54;7.15;;;5.00;;
19800;SDS011;10060;48.274;12.214;2023-07-24T12:35:57;10.23;;;4.70;;
19800;SDS011;10060;48.274;12.214;2023-07-24T12:39:00;8.23;;;5.43;;
19800;SDS011;10060;48.274;12.214;2023-07-24T12:42:02;9.32;;;5.70;;
19800;SDS011;10060;48.274;12.214;2023-07-24T12:45:05;7.47;;;4.88;;
19800;SDS011;10060;48.274;12.214;2023-07-24T12:48:07;9.38;;;5.28;;
19800;SDS011;10060;48.274;12.214;2023-07-24T12:51:09;8.10;;;5.10;;
19800;SDS011;10060;48.274;12.214;2023-07-24T12:54:13;8.32;;;5.50;;
19800;SDS011;10060;48.274;12.214;2023-07-24T12:57:15;7.75;;;4.53;;
19800;SDS011;10060;48.274;12.214;2023-07-24T13:00:17;6.47;;;3.85;;
19800;SDS011;10060;48.274;12.214;2023-07-24T13:03:19;6.72;;;4.03;;
19800;SDS011;10060;48.274;12.214;2023-07-24T13:06:21;7.88;;;4.15;;
19800;SDS011;10060;48.274;12.214;2023-07-24T13:09:25;7.15;;;4.78;;
19800;SDS011;10060;48.274;12.214;2023-07-24T13:12:27;8.50;;;4.15;;
19800;SDS011;10060;48.274;12.214;2023-07-24T13:15:29;6.82;;;4.30;;
19800;SDS011;10060;48.274;12.214;2023-07-24T13:18:32;9.20;;;5.32;;
19800;SDS011;10060;48.274;12.214;2023-07-24T13:21:34;8.13;;;5.05;;
19800;SDS011;10060;48.274;12.214;2023-07-24T13:24:37;9.30;;;5.55;;
19800;SDS011;10060;48.274;12.214;2023-07-24T13:27:39;8.07;;;5.65;;
19800;SDS011;10060;48.274;12.214;2023-07-24T13:30:41;8.10;;;5.45;;
19800;SDS011;10060;48.274;12.214;2023-07-24T13:33:44;8.68;;;4.82;;
19800;SDS011;10060;48.274;12.214;2023-07-24T13:36:46;9.48;;;4.97;;
19800;SDS011;10060;48.274;12.214;2023-07-24T13:39:50;8.35;;;5.20;;
19800;SDS011;10060;48.274;12.214;2023-07-24T13:42:53;8.93;;;5.60;;
19800;SDS011;10060;48.274;12.214;2023-07-24T13:45:56;9.40;;;4.90;;
19800;SDS011;10060;48.274;12.214;2023-07-24T13:48:58;8.48;;;5.22;;
19800;SDS011;10060;48.274;12.214;2023-07-24T13:52:00;8.73;;;5.20;;
19800;SDS011;10060;48.274;12.214;2023-07-24T13:55:04;6.80;;;4.70;;
19800;SDS011;10060;48.274;12.214;2023-07-24T13:58:06;7.55;;;4.85;;
19800;SDS011;10060;48.274;12.214;2023-07-24T14:01:08;7.30;;;4.80;;
19800;SDS011;10060;48.274;12.214;2023-07-24T14:04:10;8.75;;;5.90;;
19800;SDS011;10060;48.274;12.214;2023-07-24T14:07:14;6.53;;;4.63;;
19800;SDS011;10060;48.274;12.214;2023-07-24T14:10:17;6.97;;;4.70;;
19800;SDS011;10060;48.274;12.214;2023-07-24T14:13:19;7.57;;;4.57;;
19800;SDS011;10060;48.274;12.214;2023-07-24T14:16:21;6.90;;;5.28;;
19800;SDS011;10060;48.274;12.214;2023-07-24T14:19:24;9.18;;;5.22;;
19800;SDS011;10060;48.274;12.214;2023-07-24T14:22:26;7.57;;;4.50;;
19800;SDS011;10060;48.274;12.214;2023-07-24T14:25:29;8.70;;;4.32;;
19800;SDS011;10060;48.274;12.214;2023-07-24T14:28:31;6.10;;;4.15;;
19800;SDS011;10060;48.274;12.214;2023-07-24T14:31:33;6.90;;;4.10;;
19800;SDS011;10060;48.274;12.214;2023-07-24T14:34:35;7.18;;;4.72;;
19800;SDS011;10060;48.274;12.214;2023-07-24T14:37:37;6.65;;;3.92;;
19800;SDS011;10060;48.274;12.214;2023-07-24T14:40:41;6.72;;;4.75;;
19800;SDS011;10060;48.274;12.214;2023-07-24T14:43:43;7.70;;;4.55;;
19800;SDS011;10060;48.274;12.214;2023-07-24T14:46:45;7.10;;;4.53;;
19800;SDS011;10060;48.274;12.214;2023-07-24T14:49:47;6.32;;;4.25;;
19800;SDS011;10060;48.274;12.214;2023-07-24T14:52:49;8.23;;;4.78;;
19800;SDS011;10060;48.274;12.214;2023-07-24T14:55:53;6.32;;;4.32;;
19800;SDS011;10060;48.274;12.214;2023-07-24T14:58:55;5.82;;;4.35;;
19800;SDS011;10060;48.274;12.214;2023-07-24T15:01:57;7.03;;;4.03;;
19800;SDS011;10060;48.274;12.214;2023-07-24T15:04:59;7.78;;;4.05;;
19800;SDS011;10060;48.274;12.214;2023-07-24T15:08:01;5.80;;;4.10;;
19800;SDS011;10060;48.274;12.214;2023-07-24T15:11:04;6.45;;;4.30;;
19800;SDS011;10060;48.274;12.214;2023-07-24T15:14:06;7.50;;;4.30;;
19800;SDS011;10060;48.274;12.214;2023-07-24T15:17:08;7.18;;;4.25;;
19800;SDS011;10060;48.274;12.214;2023-07-24T15:20:12;6.25;;;3.90;;
19800;SDS011;10060;48.274;12.214;2023-07-24T15:23:14;7.43;;;3.88;;
19800;SDS011;10060;48.274;12.214;2023-07-24T15:26:19;6.20;;;3.78;;
19800;SDS011;10060;48.274;12.214;2023-07-24T15:29:21;6.78;;;4.28;;
19800;SDS011;10060;48.274;12.214;2023-07-24T15:32:23;6.07;;;4.07;;
19800;SDS011;10060;48.274;12.214;2023-07-24T15:35:25;4.85;;;3.40;;
19800;SDS011;10060;48.274;12.214;2023-07-24T15:38:27;5.88;;;3.70;;
19800;SDS011;10060;48.274;12.214;2023-07-24T15:41:30;6.40;;;3.85;;
19800;SDS011;10060;48.274;12.214;2023-07-24T15:44:33;5.20;;;3.58;;
19800;SDS011;10060;48.274;12.214;2023-07-24T15:47:35;4.43;;;3.10;;
19800;SDS011;10060;48.274;12.214;2023-07-24T15:50:37;6.25;;;4.07;;
19800;SDS011;10060;48.274;12.214;2023-07-24T15:53:39;5.88;;;3.88;;
19800;SDS011;10060;48.274;12.214;2023-07-24T15:56:42;5.72;;;3.47;;
19800;SDS011;10060;48.274;12.214;2023-07-24T15:59:44;5.60;;;3.28;;
19800;SDS011;10060;48.274;12.214;2023-07-24T16:02:47;5.00;;;3.40;;
19800;SDS011;10060;48.274;12.214;2023-07-24T16:05:49;4.78;;;3.38;;
19800;SDS011;10060;48.274;12.214;2023-07-24T16:08:51;5.05;;;3.58;;
19800;SDS011;10060;48.274;12.214;2023-07-24T16:11:54;5.72;;;3.53;;
19800;SDS011;10060;48.274;12.214;2023-07-24T16:14:56;5.53;;;2.95;;
19800;SDS011;10060;48.274;12.214;2023-07-24T16:18:00;4.88;;;2.90;;
19800;SDS011;10060;48.274;12.214;2023-07-24T16:21:02;4.72;;;3.35;;
19800;SDS011;10060;48.274;12.214;2023-07-24T16:24:04;6.53;;;4.47;;
19800;SDS011;10060;48.274;12.214;2023-07-24T16:27:07;6.93;;;4.22;;
19800;SDS011;10060;48.274;12.214;2023-07-24T16:30:10;5.53;;;3.88;;
19800;SDS011;10060;48.274;12.214;2023-07-24T16:33:12;7.32;;;4.28;;
19800;SDS011;10060;48.274;12.214;2023-07-24T16:36:14;6.97;;;4.00;;
19800;SDS011;10060;48.274;12.214;2023-07-24T16:39:16;5.65;;;4.28;;
19800;SDS011;10060;48.274;12.214;2023-07-24T16:42:20;7.78;;;4.00;;
19800;SDS011;10060;48.274;12.214;2023-07-24T16:45:22;5.95;;;4.18;;
19800;SDS011;10060;48.274;12.214;2023-07-24T16:48:24;7.20;;;4.95;;
19800;SDS011;10060;48.274;12.214;2023-07-24T16:51:26;5.82;;;4.32;;
19800;SDS011;10060;48.274;12.214;2023-07-24T16:54:28;6.90;;;4.30;;
19800;SDS011;10060;48.274;12.214;2023-07-24T16:57:31;7.78;;;4.45;;
19800;SDS011;10060;48.274;12.214;2023-07-24T17:00:34;5.93;;;3.70;;
19800;SDS011;10060;48.274;12.214;2023-07-24T17:03:36;7.10;;;4.32;;
19800;SDS011;10060;48.274;12.214;2023-07-24T17:06:38;8.55;;;4.15;;
19800;SDS011;10060;48.274;12.214;2023-07-24T17:09:42;5.25;;;3.75;;
19800;SDS011;10060;48.274;12.214;2023-07-24T17:12:45;4.32;;;3.63;;
19800;SDS011;10060;48.274;12.214;2023-07-24T17:15:47;7.40;;;4.60;;
19800;SDS011;10060;48.274;12.214;2023-07-24T17:18:49;6.05;;;3.42;;
19800;SDS011;10060;48.274;12.214;2023-07-24T17:21:54;5.70;;;4.15;;
19800;SDS011;10060;48.274;12.214;2023-07-24T17:24:56;5.50;;;3.67;;
19800;SDS011;10060;48.274;12.214;2023-07-24T17:27:59;6.55;;;3.88;;
19800;SDS011;10060;48.274;12.214;2023-07-24T17:31:01;5.80;;;4.13;;
19800;SDS011;10060;48.274;12.214;2023-07-24T17:34:03;5.30;;;4.20;;
19800;SDS011;10060;48.274;12.214;2023-07-24T17:37:05;9.45;;;4.50;;
19800;SDS011;10060;48.274;12.214;2023-07-24T17:40:08;8.07;;;4.60;;
19800;SDS011;10060;48.274;12.214;2023-07-24T17:43:11;8.90;;;4.88;;
19800;SDS011;10060;48.274;12.214;2023-07-24T17:46:13;8.65;;;4.78;;
19800;SDS011;10060;48.274;12.214;2023-07-24T17:49:17;8.45;;;5.47;;
19800;SDS011;10060;48.274;12.214;2023-07-24T17:52:19;8.05;;;5.25;;
19800;SDS011;10060;48.274;12.214;2023-07-24T17:55:21;9.90;;;5.90;;
19800;SDS011;10060;48.274;12.214;2023-07-24T17:58:24;8.43;;;5.47;;